sensor_id;sensor_type;location;lat;lon;timestamp;temperature;humidity
9293;DHT22;69930;48.232;12.384;2024-02-21T00:01:51;7.40;99.90
9293;DHT22;69930;48.232;12.384;2024-02-21T00:04:20;7.30;99.90
9293;DHT22;69930;48.232;12.384;2024-02-21T00:06:47;7.30;99.90
9293;DHT22;69930;48.232;12.384;2024-02-21T00:09:14;7.20;99.90
9293;DHT22;69930;48.232;12.384;2024-02-21T00:11:41;7.20;99.90
9293;DHT22;69930;48.232;12.384;2024-02-21T00:14:11;7.20;99.90
9293;DHT22;69930;48.232;12.384;2024-02-21T00:16:38;7.10;99.90
9293;DHT22;69930;48.232;12.384;2024-02-21T00:19:05;7.00;99.90
9293;DHT22;69930;48.232;12.384;2024-02-21T00:21:33;7.00;99.90
9293;DHT22;69930;48.232;12.384;2024-02-21T00:24:00;7.10;99.90
9293;DHT22;69930;48.232;12.384;2024-02-21T00:26:28;7.10;99.90
9293;DHT22;69930;48.232;12.384;2024-02-21T00:28:55;7.10;99.90
9293;DHT22;69930;48.232;12.384;2024-02-21T00:31:22;7.20;99.90
9293;DHT22;69930;48.232;12.384;2024-02-21T00:33:49;7.20;99.90
9293;DHT22;69930;48.232;12.384;2024-02-21T00:36:17;7.20;99.90
9293;DHT22;69930;48.232;12.384;2024-02-21T00:38:45;7.30;99.90
9293;DHT22;69930;48.232;12.384;2024-02-21T00:41:12;7.30;99.90
9293;DHT22;69930;48.232;12.384;2024-02-21T00:43:39;7.40;99.90
9293;DHT22;69930;48.232;12.384;2024-02-21T00:46:06;7.40;99.90
9293;DHT22;69930;48.232;12.384;2024-02-21T00:48:33;7.40;99.90
9293;DHT22;69930;48.232;12.384;2024-02-21T00:51:01;7.40;99.90
9293;DHT22;69930;48.232;12.384;2024-02-21T00:53:28;7.40;99.90
9293;DHT22;69930;48.232;12.384;2024-02-21T00:55:56;7.30;99.90
9293;DHT22;69930;48.232;12.384;2024-02-21T00:58:23;7.30;99.90
9293;DHT22;69930;48.232;12.384;2024-02-21T01:00:50;7.30;99.90
9293;DHT22;69930;48.232;12.384;2024-02-21T01:03:19;7.20;99.90
9293;DHT22;69930;48.232;12.384;2024-02-21T01:05:46;7.20;99.90
9293;DHT22;69930;48.232;12.384;2024-02-21T01:08:13;7.20;99.90
9293;DHT22;69930;48.232;12.384;2024-02-21T01:10:40;7.20;99.90
9293;DHT22;69930;48.232;12.384;2024-02-21T01:13:08;7.20;99.90
9293;DHT22;69930;48.232;12.384;2024-02-21T01:15:35;7.20;99.90
9293;DHT22;69930;48.232;12.384;2024-02-21T01:18:03;7.20;99.90
9293;DHT22;69930;48.232;12.384;2024-02-21T01:20:30;7.20;99.90
9293;DHT22;69930;48.232;12.384;2024-02-21T01:22:57;7.20;99.90
9293;DHT22;69930;48.232;12.384;2024-02-21T01:25:24;7.20;99.90
9293;DHT22;69930;48.232;12.384;2024-02-21T01:27:52;7.10;99.90
9293;DHT22;69930;48.232;12.384;2024-02-21T01:30:20;7.10;99.90
9293;DHT22;69930;48.232;12.384;2024-02-21T01:32:47;7.20;99.90
9293;DHT22;69930;48.232;12.384;2024-02-21T01:35:14;7.20;99.90
9293;DHT22;69930;48.232;12.384;2024-02-21T01:37:42;7.20;99.90
9293;DHT22;69930;48.232;12.384;2024-02-21T01:40:10;7.30;99.90
9293;DHT22;69930;48.232;12.384;2024-02-21T01:42:38;7.20;99.90
9293;DHT22;69930;48.232;12.384;2024-02-21T01:45:07;7.20;99.90
9293;DHT22;69930;48.232;12.384;2024-02-21T01:47:36;7.20;99.90
9293;DHT22;69930;48.232;12.384;2024-02-21T01:50:04;7.30;99.90
9293;DHT22;69930;48.232;12.384;2024-02-21T01:52:32;7.30;99.90
9293;DHT22;69930;48.232;12.384;2024-02-21T01:55:01;7.30;99.90
9293;DHT22;69930;48.232;12.384;2024-02-21T01:57:28;7.30;99.90
9293;DHT22;69930;48.232;12.384;2024-02-21T01:59:56;7.30;99.90
9293;DHT22;69930;48.232;12.384;2024-02-21T02:02:24;7.30;99.90
9293;DHT22;69930;48.232;12.384;2024-02-21T04:37:37;7.10;99.90
9293;DHT22;69930;48.232;12.384;2024-02-21T04:40:05;7.10;99.90
9293;DHT22;69930;48.232;12.384;2024-02-21T04:42:35;7.10;99.90
9293;DHT22;69930;48.232;12.384;2024-02-21T04:45:02;7.10;99.90
9293;DHT22;69930;48.232;12.384;2024-02-21T04:47:29;7.10;99.90
9293;DHT22;69930;48.232;12.384;2024-02-21T04:49:56;7.10;99.90
9293;DHT22;69930;48.232;12.384;2024-02-21T04:52:23;7.10;99.90
9293;DHT22;69930;48.232;12.384;2024-02-21T04:54:52;7.10;99.90
9293;DHT22;69930;48.232;12.384;2024-02-21T04:57:19;7.10;99.90
9293;DHT22;69930;48.232;12.384;2024-02-21T04:59:47;7.10;99.90
9293;DHT22;69930;48.232;12.384;2024-02-21T05:02:14;7.10;99.90
9293;DHT22;69930;48.232;12.384;2024-02-21T05:04:42;7.10;99.90
9293;DHT22;69930;48.232;12.384;2024-02-21T05:07:09;7.10;99.90
9293;DHT22;69930;48.232;12.384;2024-02-21T05:09:37;7.10;99.90
9293;DHT22;69930;48.232;12.384;2024-02-21T05:12:06;7.10;99.90
9293;DHT22;69930;48.232;12.384;2024-02-21T05:14:34;7.10;99.90
9293;DHT22;69930;48.232;12.384;2024-02-21T05:17:01;7.10;99.90
9293;DHT22;69930;48.232;12.384;2024-02-21T05:19:28;7.00;99.90
9293;DHT22;69930;48.232;12.384;2024-02-21T05:21:55;7.10;99.90
9293;DHT22;69930;48.232;12.384;2024-02-21T05:24:22;7.10;99.90
9293;DHT22;69930;48.232;12.384;2024-02-21T05:26:49;7.10;99.90
9293;DHT22;69930;48.232;12.384;2024-02-21T05:29:18;7.10;99.90
9293;DHT22;69930;48.232;12.384;2024-02-21T05:32:00;7.10;99.90
9293;DHT22;69930;48.232;12.384;2024-02-21T05:34:28;7.20;99.90
9293;DHT22;69930;48.232;12.384;2024-02-21T05:36:55;7.20;99.90
9293;DHT22;69930;48.232;12.384;2024-02-21T05:39:23;7.20;99.90
9293;DHT22;69930;48.232;12.384;2024-02-21T05:41:50;7.10;99.90
9293;DHT22;69930;48.232;12.384;2024-02-21T06:15:34;6.30;99.90
9293;DHT22;69930;48.232;12.384;2024-02-21T06:18:01;6.30;99.90
9293;DHT22;69930;48.232;12.384;2024-02-21T06:51:47;6.60;99.90
9293;DHT22;69930;48.232;12.384;2024-02-21T06:54:15;6.70;99.90
9293;DHT22;69930;48.232;12.384;2024-02-21T06:56:43;6.70;99.90
9293;DHT22;69930;48.232;12.384;2024-02-21T06:59:25;6.70;99.90
9293;DHT22;69930;48.232;12.384;2024-02-21T07:01:54;6.60;99.90
9293;DHT22;69930;48.232;12.384;2024-02-21T07:04:23;6.50;99.90
9293;DHT22;69930;48.232;12.384;2024-02-21T07:06:51;6.50;99.90
9293;DHT22;69930;48.232;12.384;2024-02-21T07:09:18;6.50;99.90
9293;DHT22;69930;48.232;12.384;2024-02-21T07:11:46;6.60;99.90
9293;DHT22;69930;48.232;12.384;2024-02-21T07:14:21;6.70;99.90
9293;DHT22;69930;48.232;12.384;2024-02-21T07:16:49;6.70;99.90
9293;DHT22;69930;48.232;12.384;2024-02-21T07:22:13;6.80;99.90
9293;DHT22;69930;48.232;12.384;2024-02-21T07:24:40;7.00;99.90
9293;DHT22;69930;48.232;12.384;2024-02-21T07:27:07;7.20;99.90
9293;DHT22;69930;48.232;12.384;2024-02-21T07:29:34;7.40;99.90
9293;DHT22;69930;48.232;12.384;2024-02-21T07:32:02;7.70;99.90
9293;DHT22;69930;48.232;12.384;2024-02-21T07:34:29;7.80;99.90
9293;DHT22;69930;48.232;12.384;2024-02-21T07:36:56;7.80;99.90
9293;DHT22;69930;48.232;12.384;2024-02-21T07:39:25;7.80;99.90
9293;DHT22;69930;48.232;12.384;2024-02-21T07:41:52;7.90;99.90
9293;DHT22;69930;48.232;12.384;2024-02-21T07:44:19;7.90;99.90
9293;DHT22;69930;48.232;12.384;2024-02-21T07:46:46;7.90;99.90
9293;DHT22;69930;48.232;12.384;2024-02-21T07:49:13;8.00;99.90
9293;DHT22;69930;48.232;12.384;2024-02-21T07:51:40;7.90;99.90
9293;DHT22;69930;48.232;12.384;2024-02-21T07:54:08;7.80;99.90
9293;DHT22;69930;48.232;12.384;2024-02-21T07:56:36;7.80;99.90
9293;DHT22;69930;48.232;12.384;2024-02-21T07:59:03;7.80;99.90
9293;DHT22;69930;48.232;12.384;2024-02-21T08:01:33;7.80;99.90
9293;DHT22;69930;48.232;12.384;2024-02-21T08:04:00;7.90;99.90
9293;DHT22;69930;48.232;12.384;2024-02-21T08:06:29;7.90;99.90
9293;DHT22;69930;48.232;12.384;2024-02-21T08:14:43;7.80;99.90
9293;DHT22;69930;48.232;12.384;2024-02-21T08:17:10;7.90;99.90
9293;DHT22;69930;48.232;12.384;2024-02-21T08:19:37;7.90;99.90
9293;DHT22;69930;48.232;12.384;2024-02-21T08:22:04;7.90;99.90
9293;DHT22;69930;48.232;12.384;2024-02-21T08:49:54;7.90;99.90
9293;DHT22;69930;48.232;12.384;2024-02-21T09:16:18;8.50;99.90
9293;DHT22;69930;48.232;12.384;2024-02-21T09:18:46;8.60;99.90
9293;DHT22;69930;48.232;12.384;2024-02-21T09:21:13;8.60;99.90
9293;DHT22;69930;48.232;12.384;2024-02-21T09:23:40;8.70;99.90
9293;DHT22;69930;48.232;12.384;2024-02-21T09:26:08;8.70;99.90
9293;DHT22;69930;48.232;12.384;2024-02-21T09:28:39;9.00;99.90
9293;DHT22;69930;48.232;12.384;2024-02-21T09:31:06;9.30;99.90
9293;DHT22;69930;48.232;12.384;2024-02-21T09:33:34;9.70;99.90
9293;DHT22;69930;48.232;12.384;2024-02-21T09:36:03;10.00;99.90
9293;DHT22;69930;48.232;12.384;2024-02-21T09:38:31;10.40;99.90
9293;DHT22;69930;48.232;12.384;2024-02-21T09:41:00;10.60;99.90
9293;DHT22;69930;48.232;12.384;2024-02-21T09:43:29;10.80;99.90
9293;DHT22;69930;48.232;12.384;2024-02-21T09:45:58;11.10;99.90
9293;DHT22;69930;48.232;12.384;2024-02-21T09:48:37;11.40;99.90
9293;DHT22;69930;48.232;12.384;2024-02-21T09:51:25;11.70;99.90
9293;DHT22;69930;48.232;12.384;2024-02-21T09:53:54;12.20;99.90
9293;DHT22;69930;48.232;12.384;2024-02-21T09:56:23;12.60;99.90
9293;DHT22;69930;48.232;12.384;2024-02-21T09:58:50;12.90;99.90
9293;DHT22;69930;48.232;12.384;2024-02-21T10:01:17;13.10;99.90
9293;DHT22;69930;48.232;12.384;2024-02-21T10:03:45;13.00;99.90
9293;DHT22;69930;48.232;12.384;2024-02-21T10:06:12;13.10;99.90
9293;DHT22;69930;48.232;12.384;2024-02-21T10:08:39;13.30;99.90
9293;DHT22;69930;48.232;12.384;2024-02-21T10:11:06;13.40;99.90
9293;DHT22;69930;48.232;12.384;2024-02-21T10:13:35;13.60;99.90
9293;DHT22;69930;48.232;12.384;2024-02-21T10:16:05;13.80;99.90
9293;DHT22;69930;48.232;12.384;2024-02-21T10:18:33;13.80;99.90
9293;DHT22;69930;48.232;12.384;2024-02-21T10:21:03;13.70;99.90
9293;DHT22;69930;48.232;12.384;2024-02-21T10:23:41;13.80;99.90
9293;DHT22;69930;48.232;12.384;2024-02-21T10:27:07;13.90;99.90
9293;DHT22;69930;48.232;12.384;2024-02-21T10:29:49;13.60;99.90
9293;DHT22;69930;48.232;12.384;2024-02-21T10:32:18;13.30;99.90
9293;DHT22;69930;48.232;12.384;2024-02-21T10:35:03;13.40;99.90
9293;DHT22;69930;48.232;12.384;2024-02-21T10:51:46;14.60;99.90
9293;DHT22;69930;48.232;12.384;2024-02-21T10:54:23;14.70;99.90
9293;DHT22;69930;48.232;12.384;2024-02-21T10:56:51;14.80;99.90
9293;DHT22;69930;48.232;12.384;2024-02-21T10:59:20;14.70;99.90
9293;DHT22;69930;48.232;12.384;2024-02-21T11:01:48;14.50;98.40
9293;DHT22;69930;48.232;12.384;2024-02-21T11:04:16;14.40;99.90
9293;DHT22;69930;48.232;12.384;2024-02-21T11:06:45;14.20;99.90
9293;DHT22;69930;48.232;12.384;2024-02-21T11:09:13;14.10;99.90
9293;DHT22;69930;48.232;12.384;2024-02-21T11:14:29;14.30;99.90
9293;DHT22;69930;48.232;12.384;2024-02-21T11:16:58;14.50;99.70
9293;DHT22;69930;48.232;12.384;2024-02-21T11:19:26;14.70;99.90
9293;DHT22;69930;48.232;12.384;2024-02-21T11:21:56;14.80;98.00
9293;DHT22;69930;48.232;12.384;2024-02-21T11:27:14;14.60;95.60
9293;DHT22;69930;48.232;12.384;2024-02-21T12:48:54;14.10;93.40
9293;DHT22;69930;48.232;12.384;2024-02-21T14:00:26;14.10;88.80
9293;DHT22;69930;48.232;12.384;2024-02-21T14:59:34;14.00;88.80
9293;DHT22;69930;48.232;12.384;2024-02-21T15:02:01;14.00;89.10
9293;DHT22;69930;48.232;12.384;2024-02-21T15:04:28;14.00;90.30
9293;DHT22;69930;48.232;12.384;2024-02-21T15:06:56;14.00;91.10
9293;DHT22;69930;48.232;12.384;2024-02-21T15:09:24;14.00;91.30
9293;DHT22;69930;48.232;12.384;2024-02-21T15:11:51;13.90;91.50
9293;DHT22;69930;48.232;12.384;2024-02-21T15:14:18;13.90;92.00
9293;DHT22;69930;48.232;12.384;2024-02-21T15:16:47;13.90;92.10
9293;DHT22;69930;48.232;12.384;2024-02-21T15:19:14;13.80;91.30
9293;DHT22;69930;48.232;12.384;2024-02-21T15:21:41;13.70;91.30
9293;DHT22;69930;48.232;12.384;2024-02-21T15:24:08;13.70;92.00
9293;DHT22;69930;48.232;12.384;2024-02-21T15:26:35;13.60;92.30
9293;DHT22;69930;48.232;12.384;2024-02-21T15:29:02;13.60;92.20
9293;DHT22;69930;48.232;12.384;2024-02-21T15:31:31;13.60;92.40
9293;DHT22;69930;48.232;12.384;2024-02-21T15:33:59;13.60;92.90
9293;DHT22;69930;48.232;12.384;2024-02-21T15:36:26;13.60;93.40
9293;DHT22;69930;48.232;12.384;2024-02-21T15:38:54;13.50;93.50
9293;DHT22;69930;48.232;12.384;2024-02-21T15:41:24;13.50;93.60
9293;DHT22;69930;48.232;12.384;2024-02-21T15:43:51;13.40;93.90
9293;DHT22;69930;48.232;12.384;2024-02-21T15:46:19;13.40;94.30
9293;DHT22;69930;48.232;12.384;2024-02-21T15:48:46;13.30;94.50
9293;DHT22;69930;48.232;12.384;2024-02-21T15:51:17;13.30;94.90
9293;DHT22;69930;48.232;12.384;2024-02-21T15:53:45;13.20;95.00
9293;DHT22;69930;48.232;12.384;2024-02-21T15:56:12;13.20;95.30
9293;DHT22;69930;48.232;12.384;2024-02-21T15:58:39;13.10;95.50
9293;DHT22;69930;48.232;12.384;2024-02-21T16:01:06;13.00;96.10
9293;DHT22;69930;48.232;12.384;2024-02-21T16:03:37;13.00;96.70
9293;DHT22;69930;48.232;12.384;2024-02-21T16:06:04;12.80;97.40
9293;DHT22;69930;48.232;12.384;2024-02-21T16:08:34;12.70;98.10
9293;DHT22;69930;48.232;12.384;2024-02-21T16:11:03;12.60;98.80
9293;DHT22;69930;48.232;12.384;2024-02-21T16:13:31;12.50;99.10
9293;DHT22;69930;48.232;12.384;2024-02-21T16:15:58;12.40;99.30
9293;DHT22;69930;48.232;12.384;2024-02-21T16:18:25;12.20;99.40
9293;DHT22;69930;48.232;12.384;2024-02-21T16:20:52;12.20;99.40
9293;DHT22;69930;48.232;12.384;2024-02-21T16:23:19;12.10;99.80
9293;DHT22;69930;48.232;12.384;2024-02-21T16:25:47;12.00;99.80
9293;DHT22;69930;48.232;12.384;2024-02-21T16:28:15;11.90;99.90
9293;DHT22;69930;48.232;12.384;2024-02-21T16:30:42;11.70;99.90
9293;DHT22;69930;48.232;12.384;2024-02-21T16:33:09;11.60;99.90
9293;DHT22;69930;48.232;12.384;2024-02-21T16:35:37;11.50;99.90
9293;DHT22;69930;48.232;12.384;2024-02-21T16:38:04;11.40;99.90
9293;DHT22;69930;48.232;12.384;2024-02-21T16:40:36;11.30;99.90
9293;DHT22;69930;48.232;12.384;2024-02-21T16:43:04;11.20;99.90
9293;DHT22;69930;48.232;12.384;2024-02-21T16:45:31;11.10;99.90
9293;DHT22;69930;48.232;12.384;2024-02-21T16:47:59;11.00;99.90
9293;DHT22;69930;48.232;12.384;2024-02-21T16:50:26;10.90;99.90
9293;DHT22;69930;48.232;12.384;2024-02-21T16:52:53;10.80;99.90
9293;DHT22;69930;48.232;12.384;2024-02-21T16:55:22;10.70;99.90
9293;DHT22;69930;48.232;12.384;2024-02-21T16:57:49;10.70;99.90
9293;DHT22;69930;48.232;12.384;2024-02-21T17:00:18;10.60;99.90
9293;DHT22;69930;48.232;12.384;2024-02-21T17:02:46;10.50;99.90
9293;DHT22;69930;48.232;12.384;2024-02-21T17:05:13;10.50;99.90
9293;DHT22;69930;48.232;12.384;2024-02-21T17:07:40;10.40;99.90
9293;DHT22;69930;48.232;12.384;2024-02-21T17:10:08;10.30;99.90
9293;DHT22;69930;48.232;12.384;2024-02-21T17:12:35;10.30;99.90
9293;DHT22;69930;48.232;12.384;2024-02-21T17:15:03;10.30;99.90
9293;DHT22;69930;48.232;12.384;2024-02-21T17:17:33;10.20;99.90
9293;DHT22;69930;48.232;12.384;2024-02-21T17:20:01;10.10;99.90
9293;DHT22;69930;48.232;12.384;2024-02-21T17:22:29;10.10;99.90
9293;DHT22;69930;48.232;12.384;2024-02-21T17:24:56;10.10;99.90
9293;DHT22;69930;48.232;12.384;2024-02-21T17:27:23;10.10;99.90
9293;DHT22;69930;48.232;12.384;2024-02-21T17:29:51;10.00;99.90
9293;DHT22;69930;48.232;12.384;2024-02-21T17:32:18;10.00;99.90
9293;DHT22;69930;48.232;12.384;2024-02-21T17:34:46;10.00;99.90
9293;DHT22;69930;48.232;12.384;2024-02-21T17:37:13;9.90;99.90
9293;DHT22;69930;48.232;12.384;2024-02-21T17:39:41;9.90;99.90
9293;DHT22;69930;48.232;12.384;2024-02-21T17:42:08;9.90;99.90
9293;DHT22;69930;48.232;12.384;2024-02-21T17:44:35;9.90;99.90
9293;DHT22;69930;48.232;12.384;2024-02-21T17:47:04;9.90;99.90
9293;DHT22;69930;48.232;12.384;2024-02-21T17:52:21;10.00;99.90
9293;DHT22;69930;48.232;12.384;2024-02-21T17:54:48;10.00;99.90
9293;DHT22;69930;48.232;12.384;2024-02-21T17:57:15;10.00;99.90
9293;DHT22;69930;48.232;12.384;2024-02-21T17:59:43;10.10;99.90
9293;DHT22;69930;48.232;12.384;2024-02-21T18:02:11;10.10;99.90
9293;DHT22;69930;48.232;12.384;2024-02-21T18:04:45;10.10;99.90
9293;DHT22;69930;48.232;12.384;2024-02-21T18:07:13;10.10;99.90
9293;DHT22;69930;48.232;12.384;2024-02-21T18:09:42;10.00;99.90
9293;DHT22;69930;48.232;12.384;2024-02-21T18:12:09;9.90;99.90
9293;DHT22;69930;48.232;12.384;2024-02-21T18:14:37;9.80;99.90
9293;DHT22;69930;48.232;12.384;2024-02-21T18:17:04;9.70;99.90
9293;DHT22;69930;48.232;12.384;2024-02-21T18:19:33;9.70;99.90
9293;DHT22;69930;48.232;12.384;2024-02-21T18:22:00;9.70;99.90
9293;DHT22;69930;48.232;12.384;2024-02-21T18:24:35;9.70;99.90
9293;DHT22;69930;48.232;12.384;2024-02-21T18:27:04;9.70;99.90
9293;DHT22;69930;48.232;12.384;2024-02-21T18:29:32;9.70;99.90
9293;DHT22;69930;48.232;12.384;2024-02-21T18:31:59;9.70;99.90
9293;DHT22;69930;48.232;12.384;2024-02-21T18:49:10;9.40;99.90
9293;DHT22;69930;48.232;12.384;2024-02-21T20:10:49;8.70;99.90
9293;DHT22;69930;48.232;12.384;2024-02-21T20:13:17;8.70;99.90
9293;DHT22;69930;48.232;12.384;2024-02-21T20:15:44;8.70;99.90
9293;DHT22;69930;48.232;12.384;2024-02-21T20:18:13;8.70;99.90
9293;DHT22;69930;48.232;12.384;2024-02-21T20:20:40;8.80;99.90
9293;DHT22;69930;48.232;12.384;2024-02-21T20:23:09;8.80;99.90
9293;DHT22;69930;48.232;12.384;2024-02-21T20:25:40;8.80;99.90
9293;DHT22;69930;48.232;12.384;2024-02-21T20:28:09;8.80;99.90
9293;DHT22;69930;48.232;12.384;2024-02-21T20:30:37;8.70;99.90
9293;DHT22;69930;48.232;12.384;2024-02-21T20:33:04;8.70;99.90
9293;DHT22;69930;48.232;12.384;2024-02-21T20:35:32;8.60;99.90
9293;DHT22;69930;48.232;12.384;2024-02-21T20:37:59;8.60;99.90
9293;DHT22;69930;48.232;12.384;2024-02-21T20:40:26;8.60;99.90
9293;DHT22;69930;48.232;12.384;2024-02-21T20:42:53;8.50;99.90
9293;DHT22;69930;48.232;12.384;2024-02-21T20:45:22;8.50;99.90
9293;DHT22;69930;48.232;12.384;2024-02-21T20:47:49;8.40;99.90
9293;DHT22;69930;48.232;12.384;2024-02-21T20:50:16;8.40;99.90
9293;DHT22;69930;48.232;12.384;2024-02-21T20:52:45;8.40;99.90
9293;DHT22;69930;48.232;12.384;2024-02-21T20:55:12;8.40;99.90
9293;DHT22;69930;48.232;12.384;2024-02-21T20:57:40;8.40;99.90
9293;DHT22;69930;48.232;12.384;2024-02-21T21:00:08;8.40;99.90
9293;DHT22;69930;48.232;12.384;2024-02-21T21:02:38;8.40;99.90
9293;DHT22;69930;48.232;12.384;2024-02-21T21:05:06;8.40;99.90
9293;DHT22;69930;48.232;12.384;2024-02-21T21:07:34;8.40;99.90
9293;DHT22;69930;48.232;12.384;2024-02-21T21:10:04;8.40;99.90
9293;DHT22;69930;48.232;12.384;2024-02-21T21:12:31;8.40;99.90
9293;DHT22;69930;48.232;12.384;2024-02-21T21:14:58;8.40;99.90
9293;DHT22;69930;48.232;12.384;2024-02-21T21:17:25;8.40;99.90
9293;DHT22;69930;48.232;12.384;2024-02-21T21:19:55;8.40;99.90
9293;DHT22;69930;48.232;12.384;2024-02-21T21:22:22;8.40;99.90
9293;DHT22;69930;48.232;12.384;2024-02-21T21:24:49;8.50;99.90
9293;DHT22;69930;48.232;12.384;2024-02-21T21:27:18;8.40;99.90
9293;DHT22;69930;48.232;12.384;2024-02-21T21:29:45;8.50;99.90
9293;DHT22;69930;48.232;12.384;2024-02-21T21:32:12;8.40;99.90
9293;DHT22;69930;48.232;12.384;2024-02-21T21:34:39;8.40;99.90
9293;DHT22;69930;48.232;12.384;2024-02-21T21:37:09;8.40;99.90
9293;DHT22;69930;48.232;12.384;2024-02-21T21:39:36;8.40;99.90
9293;DHT22;69930;48.232;12.384;2024-02-21T21:42:03;8.40;99.90
9293;DHT22;69930;48.232;12.384;2024-02-21T21:44:31;8.40;99.90
9293;DHT22;69930;48.232;12.384;2024-02-21T21:46:58;8.50;99.90
9293;DHT22;69930;48.232;12.384;2024-02-21T21:49:25;8.40;99.90
9293;DHT22;69930;48.232;12.384;2024-02-21T21:51:53;8.40;99.90
9293;DHT22;69930;48.232;12.384;2024-02-21T21:54:22;8.30;99.90
9293;DHT22;69930;48.232;12.384;2024-02-21T21:56:55;8.30;99.90
9293;DHT22;69930;48.232;12.384;2024-02-21T21:59:22;8.30;99.90
9293;DHT22;69930;48.232;12.384;2024-02-21T22:01:49;8.30;99.90
9293;DHT22;69930;48.232;12.384;2024-02-21T22:04:16;8.20;99.90
9293;DHT22;69930;48.232;12.384;2024-02-21T22:06:44;8.30;99.90
9293;DHT22;69930;48.232;12.384;2024-02-21T22:09:11;8.30;99.90
9293;DHT22;69930;48.232;12.384;2024-02-21T22:11:39;8.30;99.90
9293;DHT22;69930;48.232;12.384;2024-02-21T22:14:06;8.30;99.90
9293;DHT22;69930;48.232;12.384;2024-02-21T22:16:34;8.30;99.90
9293;DHT22;69930;48.232;12.384;2024-02-21T22:19:01;8.30;99.90
9293;DHT22;69930;48.232;12.384;2024-02-21T22:21:29;8.30;99.90
9293;DHT22;69930;48.232;12.384;2024-02-21T22:23:57;8.40;99.90
9293;DHT22;69930;48.232;12.384;2024-02-21T22:26:24;8.40;99.90
9293;DHT22;69930;48.232;12.384;2024-02-21T23:42:18;8.70;99.90
9293;DHT22;69930;48.232;12.384;2024-02-21T23:44:45;8.70;99.90
9293;DHT22;69930;48.232;12.384;2024-02-21T23:47:21;8.70;99.90
9293;DHT22;69930;48.232;12.384;2024-02-21T23:49:48;8.70;99.90
9293;DHT22;69930;48.232;12.384;2024-02-21T23:55:18;8.70;99.90
9293;DHT22;69930;48.232;12.384;2024-02-21T23:58:01;8.60;99.90
